createdAt,value
2017-12-25T00:00:06.103Z,79.47
2017-12-25T00:02:05.076Z,79.47
2017-12-25T00:03:04.589Z,79.09
2017-12-25T00:05:03.528Z,78.99
2017-12-25T00:06:02.007Z,78.80
2017-12-25T00:08:00.954Z,77.85
2017-12-25T00:09:00.042Z,77.95
2017-12-25T00:10:58.478Z,78.04
2017-12-25T00:11:57.933Z,78.04
2017-12-25T00:13:55.887Z,77.76
2017-12-25T00:14:55.883Z,77.66
2017-12-25T00:16:53.961Z,77.19
2017-12-25T00:17:53.926Z,77.00
2017-12-25T00:19:52.396Z,77.28
2017-12-25T00:20:52.418Z,77.09
2017-12-25T00:22:50.823Z,77.00
2017-12-25T00:23:49.804Z,77.00
2017-12-25T00:25:48.288Z,77.00
2017-12-25T00:26:47.923Z,77.00
2017-12-25T00:28:46.343Z,77.00
2017-12-25T00:29:45.866Z,77.00
2017-12-25T00:31:42.261Z,77.19
2017-12-25T00:32:41.791Z,77.37
2017-12-25T00:34:41.206Z,77.00
2017-12-25T00:35:39.673Z,77.09
2017-12-25T00:37:37.725Z,77.09
2017-12-25T00:38:38.618Z,77.09
2017-12-25T00:40:36.202Z,77.28
2017-12-25T00:41:36.726Z,77.00
2017-12-25T00:43:33.733Z,76.90
2017-12-25T00:44:33.699Z,77.09
2017-12-25T00:46:32.173Z,77.66
2017-12-25T00:47:31.640Z,77.56
2017-12-25T00:49:29.083Z,77.56
2017-12-25T00:50:28.569Z,77.37
2017-12-25T00:52:24.536Z,77.66
2017-12-25T00:53:24.500Z,77.56
2017-12-25T00:55:22.974Z,77.56
2017-12-25T00:56:23.466Z,77.95
2017-12-25T00:58:20.558Z,77.76
2017-12-25T00:59:20.517Z,77.85
2017-12-25T01:01:19.454Z,78.42
2017-12-25T01:02:18.441Z,78.04
2017-12-25T01:04:16.494Z,78.52
2017-12-25T01:05:17.373Z,78.42
2017-12-25T01:07:14.941Z,78.33
2017-12-25T01:08:14.512Z,77.76
2017-12-25T01:10:13.951Z,77.85
2017-12-25T01:11:13.463Z,77.66
2017-12-25T01:13:11.423Z,77.56
2017-12-25T01:14:10.493Z,77.66
2017-12-25T01:16:08.553Z,77.56
2017-12-25T01:17:09.378Z,77.56
2017-12-25T01:19:06.484Z,77.56
2017-12-25T01:20:07.424Z,77.95
2017-12-25T01:22:04.462Z,78.42
2017-12-25T01:23:04.437Z,78.80
2017-12-25T01:25:01.391Z,79.09
2017-12-25T01:26:00.392Z,79.47
2017-12-25T01:27:58.361Z,79.75
2017-12-25T01:28:58.409Z,79.28
2017-12-25T01:30:56.783Z,78.90
2017-12-25T01:31:56.781Z,79.19
2017-12-25T01:33:54.254Z,78.80
2017-12-25T01:34:54.199Z,78.99
2017-12-25T01:36:53.675Z,78.99
2017-12-25T01:37:52.125Z,78.99
2017-12-25T01:39:50.082Z,78.71
2017-12-25T01:40:50.088Z,78.23
2017-12-25T01:42:48.558Z,78.04
2017-12-25T01:43:48.124Z,78.04
2017-12-25T01:45:46.584Z,77.85
2017-12-25T01:46:47.085Z,77.56
2017-12-25T01:48:45.184Z,77.76
2017-12-25T01:49:44.243Z,77.47
2017-12-25T01:51:42.235Z,77.47
2017-12-25T01:52:42.701Z,77.37
2017-12-25T01:54:40.671Z,77.47
2017-12-25T01:55:40.254Z,77.56
2017-12-25T01:57:36.214Z,77.85
2017-12-25T01:58:36.182Z,77.85
2017-12-25T02:00:43.244Z,78.04
2017-12-25T02:02:59.172Z,78.14
2017-12-25T02:03:59.692Z,77.76
2017-12-25T02:05:57.122Z,77.85
2017-12-25T02:06:57.108Z,78.04
2017-12-25T02:08:56.071Z,77.85
2017-12-25T02:09:55.162Z,77.76
2017-12-25T02:11:53.121Z,77.95
2017-12-25T02:12:54.536Z,77.95
2017-12-25T02:14:51.562Z,77.76
2017-12-25T02:15:51.540Z,77.85
2017-12-25T02:17:48.968Z,78.42
2017-12-25T02:18:48.961Z,77.85
2017-12-25T02:20:47.434Z,78.42
2017-12-25T02:21:46.863Z,78.33
2017-12-25T02:23:45.832Z,78.33
2017-12-25T02:24:44.813Z,77.85
2017-12-25T02:26:43.741Z,78.42
2017-12-25T02:27:42.738Z,78.42
2017-12-25T02:29:41.690Z,78.71
2017-12-25T02:30:40.668Z,78.42
2017-12-25T02:32:38.645Z,78.99
2017-12-25T02:33:39.163Z,79.09
2017-12-25T02:35:36.587Z,78.99
2017-12-25T02:36:36.543Z,79.09
2017-12-25T02:38:35.007Z,79.19
2017-12-25T02:39:34.588Z,79.09
2017-12-25T02:41:32.660Z,79.38
2017-12-25T02:42:32.683Z,79.38
2017-12-25T02:44:31.124Z,79.66
2017-12-25T02:45:31.602Z,79.19
2017-12-25T02:47:30.641Z,79.09
2017-12-25T02:48:29.149Z,78.99
2017-12-25T02:50:26.700Z,78.99
2017-12-25T02:51:26.693Z,78.80
2017-12-25T02:53:25.154Z,79.09
2017-12-25T02:54:24.758Z,78.90
2017-12-25T02:56:23.308Z,78.80
2017-12-25T02:57:22.816Z,78.99
2017-12-25T02:59:22.283Z,78.99
2017-12-25T03:00:21.288Z,79.19
2017-12-25T03:02:20.237Z,79.28
2017-12-25T03:03:19.728Z,79.28
2017-12-25T03:05:16.859Z,79.09
2017-12-25T03:06:16.874Z,79.09
2017-12-25T03:08:15.327Z,79.09
2017-12-25T03:09:14.825Z,78.90
2017-12-25T03:11:13.284Z,78.80
2017-12-25T03:12:12.708Z,78.99
2017-12-25T03:14:12.742Z,78.90
2017-12-25T03:15:10.761Z,79.66
2017-12-25T03:17:09.722Z,79.38
2017-12-25T03:18:09.720Z,79.66
2017-12-25T03:20:06.774Z,80.04
2017-12-25T03:21:06.787Z,79.94
2017-12-25T03:23:04.904Z,79.66
2017-12-25T03:24:05.743Z,80.13
2017-12-25T03:26:04.308Z,79.94
2017-12-25T03:27:02.876Z,80.23
2017-12-25T03:29:01.842Z,81.09
2017-12-25T03:30:01.853Z,80.80
2017-12-25T03:31:59.409Z,81.47
2017-12-25T03:32:59.001Z,81.47
2017-12-25T03:34:57.078Z,82.04
2017-12-25T03:35:57.049Z,81.66
2017-12-25T03:37:55.425Z,82.23
2017-12-25T03:38:54.502Z,81.62
2017-12-25T03:40:49.911Z,81.66
2017-12-25T03:41:49.913Z,81.56
2017-12-25T03:43:48.890Z,81.85
2017-12-25T03:44:48.866Z,81.81
2017-12-25T03:46:46.026Z,82.04
2017-12-25T03:47:46.052Z,81.37
2017-12-25T03:49:45.487Z,80.90
2017-12-25T03:50:44.486Z,81.09
2017-12-25T03:52:41.941Z,80.61
2017-12-25T03:53:41.945Z,80.99
2017-12-25T03:55:40.382Z,80.61
2017-12-25T03:56:39.872Z,80.04
2017-12-25T03:58:37.826Z,80.04
2017-12-25T03:59:37.806Z,80.13
2017-12-25T04:01:37.761Z,80.23
2017-12-25T04:02:37.266Z,80.42
2017-12-25T04:04:32.712Z,80.42
2017-12-25T04:05:32.702Z,80.61
2017-12-25T04:07:30.766Z,80.80
2017-12-25T04:08:31.672Z,80.42
2017-12-25T04:10:28.699Z,80.33
2017-12-25T04:11:28.726Z,80.13
2017-12-25T04:13:27.173Z,80.04
2017-12-25T04:14:26.784Z,79.94
2017-12-25T04:16:25.250Z,80.80
2017-12-25T04:17:24.690Z,80.52
2017-12-25T04:19:23.670Z,80.04
2017-12-25T04:20:24.671Z,79.94
2017-12-25T04:22:20.717Z,79.57
2017-12-25T04:23:20.728Z,79.66
2017-12-25T04:25:19.158Z,79.66
2017-12-25T04:26:18.723Z,79.85
2017-12-25T04:28:17.688Z,79.85
2017-12-25T04:29:16.696Z,79.85
2017-12-25T04:31:14.573Z,79.47
2017-12-25T04:32:15.121Z,79.85
2017-12-25T04:34:13.052Z,80.04
2017-12-25T04:35:12.496Z,79.57
2017-12-25T04:37:11.470Z,79.66
2017-12-25T04:38:10.547Z,79.47
2017-12-25T04:40:08.480Z,79.57
2017-12-25T04:41:08.483Z,79.47
2017-12-25T04:43:06.961Z,79.66
2017-12-25T04:44:06.512Z,79.38
2017-12-25T04:46:05.494Z,79.09
2017-12-25T04:47:04.548Z,78.99
2017-12-25T04:49:03.522Z,78.80
2017-12-25T04:50:03.507Z,78.90
2017-12-25T04:52:02.072Z,78.80
2017-12-25T04:53:00.669Z,78.80
2017-12-25T04:55:00.112Z,78.23
2017-12-25T04:55:59.634Z,77.66
2017-12-25T04:57:56.637Z,77.95
2017-12-25T04:58:56.643Z,77.37
2017-12-25T05:00:54.579Z,77.37
2017-12-25T05:01:54.549Z,77.19
2017-12-25T05:03:53.491Z,77.19
2017-12-25T05:04:53.509Z,77.09
2017-12-25T05:06:51.618Z,77.47
2017-12-25T05:07:51.036Z,77.56
2017-12-25T05:09:48.467Z,77.66
2017-12-25T05:10:48.536Z,77.56
2017-12-25T05:12:46.513Z,76.90
2017-12-25T05:13:46.936Z,77.47
2017-12-25T05:15:44.874Z,77.37
2017-12-25T05:16:44.859Z,77.00
2017-12-25T05:18:42.811Z,77.19
2017-12-25T05:19:42.409Z,76.90
2017-12-25T05:21:40.873Z,77.00
2017-12-25T05:22:40.460Z,76.71
2017-12-25T05:24:38.943Z,76.52
2017-12-25T05:25:38.388Z,76.52
2017-12-25T05:27:36.404Z,76.52
2017-12-25T05:28:36.332Z,76.42
2017-12-25T05:30:32.323Z,77.00
2017-12-25T05:31:32.796Z,76.33
2017-12-25T05:33:30.216Z,76.23
2017-12-25T05:34:30.206Z,76.23
2017-12-25T05:36:28.746Z,76.33
2017-12-25T05:37:28.177Z,76.42
2017-12-25T05:39:26.624Z,75.95
2017-12-25T05:40:26.083Z,75.95
2017-12-25T05:42:25.070Z,76.42
2017-12-25T05:43:24.002Z,76.61
2017-12-25T05:45:22.983Z,75.95
2017-12-25T05:46:23.002Z,75.85
2017-12-25T05:48:20.055Z,75.19
2017-12-25T05:49:20.014Z,74.90
2017-12-25T05:51:19.459Z,74.99
2017-12-25T05:52:17.934Z,74.80
2017-12-25T05:54:15.976Z,74.90
2017-12-25T05:55:15.970Z,74.80
2017-12-25T05:57:14.429Z,74.80
2017-12-25T05:58:13.898Z,74.80
2017-12-25T06:00:12.007Z,75.38
2017-12-25T06:01:12.882Z,75.57
2017-12-25T06:03:10.930Z,75.19
2017-12-25T06:04:09.966Z,75.19
2017-12-25T06:06:08.413Z,75.57
2017-12-25T06:07:07.947Z,75.47
2017-12-25T06:09:05.926Z,75.09
2017-12-25T06:10:05.904Z,75.47
2017-12-25T06:12:02.875Z,75.28
2017-12-25T06:13:02.873Z,75.19
2017-12-25T06:15:01.329Z,74.80
2017-12-25T06:16:01.866Z,74.71
2017-12-25T06:17:58.897Z,74.71
2017-12-25T06:18:59.357Z,74.71
2017-12-25T06:20:57.810Z,75.19
2017-12-25T06:21:56.746Z,75.19
2017-12-25T06:23:55.697Z,75.28
2017-12-25T06:24:54.782Z,75.57
2017-12-25T06:26:54.244Z,74.62
2017-12-25T06:27:54.736Z,75.57
2017-12-25T06:29:51.276Z,75.19
2017-12-25T06:30:50.774Z,75.09
2017-12-25T06:32:48.757Z,75.28
2017-12-25T06:33:48.715Z,75.09
2017-12-25T06:35:48.182Z,75.09
2017-12-25T06:36:46.756Z,75.19
2017-12-25T06:38:45.263Z,75.76
2017-12-25T06:39:44.712Z,75.57
2017-12-25T06:41:42.669Z,75.76
2017-12-25T06:42:42.626Z,75.85
2017-12-25T06:44:40.620Z,75.67
2017-12-25T06:45:40.572Z,75.67
2017-12-25T06:47:37.543Z,75.85
2017-12-25T06:48:37.554Z,75.85
2017-12-25T06:50:33.434Z,75.95
2017-12-25T06:51:34.010Z,75.67
2017-12-25T06:53:29.418Z,76.23
2017-12-25T06:54:29.383Z,76.23
2017-12-25T06:56:28.875Z,76.14
2017-12-25T06:57:27.527Z,76.04
2017-12-25T06:59:25.491Z,76.33
2017-12-25T07:00:25.472Z,75.85
2017-12-25T07:02:25.879Z,76.33
2017-12-25T07:03:25.896Z,76.52
2017-12-25T07:05:23.843Z,76.61
2017-12-25T07:06:23.833Z,76.71
2017-12-25T07:08:22.293Z,76.42
2017-12-25T07:09:21.766Z,76.23
2017-12-25T07:11:19.782Z,76.23
2017-12-25T07:12:19.788Z,76.61
2017-12-25T07:14:18.654Z,76.52
2017-12-25T07:15:17.702Z,76.71
2017-12-25T07:17:15.652Z,76.81
2017-12-25T07:18:16.663Z,76.52
2017-12-25T07:20:13.654Z,76.33
2017-12-25T07:21:14.178Z,76.71
2017-12-25T07:23:11.561Z,76.90
2017-12-25T07:24:11.603Z,76.52
2017-12-25T07:26:09.511Z,76.52
2017-12-25T07:27:09.497Z,76.90
2017-12-25T07:29:05.511Z,76.23
2017-12-25T07:30:05.461Z,76.42
2017-12-25T07:32:04.917Z,76.42
2017-12-25T07:33:03.552Z,76.81
2017-12-25T07:35:01.478Z,76.90
2017-12-25T07:36:02.044Z,76.61
2017-12-25T07:37:59.529Z,77.00
2017-12-25T07:38:59.550Z,76.42
2017-12-25T07:40:57.488Z,76.71
2017-12-25T07:41:57.451Z,76.52
2017-12-25T07:43:56.382Z,76.71
2017-12-25T07:44:56.313Z,76.52
2017-12-25T07:46:53.430Z,75.76
2017-12-25T07:47:53.953Z,75.95
2017-12-25T07:49:52.888Z,75.57
2017-12-25T07:50:53.367Z,75.85
2017-12-25T07:52:51.437Z,75.57
2017-12-25T07:53:51.352Z,75.85
2017-12-25T07:55:47.484Z,75.57
2017-12-25T07:56:47.466Z,75.76
2017-12-25T07:58:45.507Z,75.57
2017-12-25T07:59:45.487Z,75.95
2017-12-25T08:01:43.467Z,75.85
2017-12-25T08:02:43.438Z,75.67
2017-12-25T08:04:42.440Z,75.57
2017-12-25T08:05:41.402Z,76.23
2017-12-25T08:07:40.335Z,75.76
2017-12-25T08:08:40.368Z,75.95
2017-12-25T08:10:38.918Z,76.14
2017-12-25T08:11:38.402Z,76.14
2017-12-25T08:13:36.407Z,76.23
2017-12-25T08:14:35.901Z,76.23
2017-12-25T08:16:32.362Z,76.42
2017-12-25T08:17:32.362Z,76.42
2017-12-25T08:19:30.323Z,75.85
2017-12-25T08:20:30.306Z,75.95
2017-12-25T08:22:29.250Z,76.14
2017-12-25T08:23:28.506Z,76.14
2017-12-25T08:25:26.465Z,76.14
2017-12-25T08:26:26.430Z,76.23
2017-12-25T08:28:24.403Z,76.61
2017-12-25T08:29:25.894Z,76.33
2017-12-25T08:31:22.324Z,76.14
2017-12-25T08:32:22.290Z,76.14
2017-12-25T08:34:21.235Z,76.33
2017-12-25T08:35:20.334Z,75.76
2017-12-25T08:37:18.298Z,75.76
2017-12-25T08:38:18.273Z,76.33
2017-12-25T08:40:16.250Z,76.52
2017-12-25T08:41:16.229Z,76.61
2017-12-25T08:43:14.172Z,76.52
2017-12-25T08:44:14.188Z,76.42
2017-12-25T08:46:12.249Z,75.85
2017-12-25T08:47:12.205Z,76.04
2017-12-25T08:49:10.231Z,76.71
2017-12-25T08:50:10.698Z,76.14
2017-12-25T08:52:06.119Z,76.23
2017-12-25T08:53:06.085Z,76.23
2017-12-25T08:55:04.543Z,76.14
2017-12-25T08:56:04.022Z,75.95
2017-12-25T08:58:02.545Z,76.14
2017-12-25T08:59:02.483Z,76.14
2017-12-25T09:00:59.893Z,75.76
2017-12-25T09:01:59.903Z,75.95
2017-12-25T09:03:57.837Z,75.57
2017-12-25T09:04:58.330Z,75.19
2017-12-25T09:06:56.295Z,75.28
2017-12-25T09:07:55.887Z,75.09
2017-12-25T09:09:53.868Z,75.09
2017-12-25T09:10:53.845Z,74.71
2017-12-25T09:12:51.825Z,74.62
2017-12-25T09:13:52.717Z,74.71
2017-12-25T09:15:50.243Z,74.90
2017-12-25T09:16:50.230Z,74.90
2017-12-25T09:18:45.716Z,74.43
2017-12-25T09:19:45.658Z,74.43
2017-12-25T09:21:41.618Z,74.62
2017-12-25T09:22:41.606Z,74.62
2017-12-25T09:24:37.586Z,74.52
2017-12-25T09:25:37.566Z,74.04
2017-12-25T09:27:36.509Z,74.14
2017-12-25T09:28:36.000Z,74.43
2017-12-25T09:30:33.494Z,74.43
2017-12-25T09:31:33.495Z,74.33
2017-12-25T09:33:31.451Z,74.24
2017-12-25T09:34:31.454Z,74.52
2017-12-25T09:36:29.366Z,74.14
2017-12-25T09:37:29.892Z,73.76
2017-12-25T09:39:27.338Z,73.95
2017-12-25T09:40:27.837Z,73.85
2017-12-25T09:42:26.273Z,73.95
2017-12-25T09:43:25.795Z,73.85
2017-12-25T09:45:23.208Z,73.95
2017-12-25T09:46:23.179Z,73.85
2017-12-25T09:48:21.124Z,73.66
2017-12-25T09:49:21.127Z,73.38
2017-12-25T09:51:19.132Z,73.19
2017-12-25T09:52:19.134Z,73.57
2017-12-25T09:54:16.625Z,72.71
2017-12-25T09:55:15.074Z,72.81
2017-12-25T09:57:13.018Z,72.81
2017-12-25T09:58:13.005Z,72.71
2017-12-25T10:00:11.516Z,73.03
2017-12-25T10:01:11.077Z,72.75
2017-12-25T10:03:09.011Z,72.27
2017-12-25T10:04:09.059Z,72.56
2017-12-25T10:06:07.978Z,72.08
2017-12-25T10:07:06.975Z,72.14
2017-12-25T10:09:04.947Z,72.52
2017-12-25T10:10:04.924Z,71.67
2017-12-25T10:12:02.850Z,71.67
2017-12-25T10:13:02.859Z,71.76
2017-12-25T10:14:59.826Z,71.86
2017-12-25T10:15:58.811Z,71.67
2017-12-25T10:17:56.781Z,71.86
2017-12-25T10:18:56.765Z,71.89
2017-12-25T10:20:52.732Z,70.94
2017-12-25T10:21:52.660Z,71.22
2017-12-25T10:23:50.608Z,71.03
2017-12-25T10:24:51.123Z,70.84
2017-12-25T10:26:48.594Z,70.75
2017-12-25T10:27:48.561Z,70.75
2017-12-25T10:29:47.553Z,70.27
2017-12-25T10:30:46.622Z,70.56
2017-12-25T10:32:46.082Z,70.27
2017-12-25T10:33:45.649Z,70.18
2017-12-25T10:35:42.695Z,70.37
2017-12-25T10:36:42.654Z,69.99
2017-12-25T10:38:40.693Z,70.08
2017-12-25T10:39:40.694Z,70.18
2017-12-25T10:41:39.698Z,69.79
2017-12-25T10:42:38.753Z,69.99
2017-12-25T10:44:38.197Z,69.42
2017-12-25T10:45:36.821Z,69.60
2017-12-25T10:47:32.732Z,69.42
2017-12-25T10:48:32.745Z,69.70
2017-12-25T10:50:28.722Z,69.70
2017-12-25T10:51:28.730Z,69.23
2017-12-25T10:53:26.782Z,69.60
2017-12-25T10:54:27.670Z,69.70
2017-12-25T10:56:23.255Z,68.94
2017-12-25T10:57:23.271Z,69.04
2017-12-25T10:59:19.669Z,68.15
2017-12-25T11:00:18.664Z,69.23
2017-12-25T11:02:16.140Z,69.32
2017-12-25T11:03:15.484Z,68.65
2017-12-25T11:05:13.571Z,68.37
2017-12-25T11:06:14.431Z,68.27
2017-12-25T11:08:12.027Z,67.99
2017-12-25T11:09:11.569Z,67.89
2017-12-25T11:11:07.419Z,67.80
2017-12-25T11:12:07.410Z,67.41
2017-12-25T11:14:03.405Z,67.22
2017-12-25T11:15:04.370Z,67.32
2017-12-25T11:17:01.285Z,67.32
2017-12-25T11:18:01.295Z,67.32
2017-12-25T11:20:00.244Z,67.13
2017-12-25T11:20:59.351Z,67.32
2017-12-25T11:22:57.398Z,66.97
2017-12-25T11:23:57.406Z,66.88
2017-12-25T11:25:55.854Z,66.50
2017-12-25T11:26:55.327Z,66.40
2017-12-25T11:28:53.288Z,66.40
2017-12-25T11:29:53.786Z,66.59
2017-12-25T11:31:51.289Z,66.59
2017-12-25T11:32:51.235Z,66.88
2017-12-25T11:34:49.694Z,66.40
2017-12-25T11:35:49.685Z,65.83
2017-12-25T11:37:47.155Z,65.73
2017-12-25T11:38:47.141Z,65.83
2017-12-25T11:40:45.602Z,65.83
2017-12-25T11:41:46.095Z,65.83
2017-12-25T11:43:43.641Z,65.83
2017-12-25T11:44:43.223Z,65.45
2017-12-25T11:46:41.169Z,65.92
2017-12-25T11:47:41.167Z,65.36
2017-12-25T11:49:39.615Z,65.36
2017-12-25T11:50:39.108Z,65.07
2017-12-25T11:52:37.586Z,64.78
2017-12-25T11:53:37.176Z,64.78
2017-12-25T11:55:35.130Z,64.50
2017-12-25T11:56:35.613Z,64.87
2017-12-25T11:58:33.079Z,65.16
2017-12-25T11:59:33.060Z,65.45
2017-12-25T12:01:32.009Z,65.26
2017-12-25T12:02:30.984Z,64.69
2017-12-25T12:04:29.948Z,64.40
2017-12-25T12:05:29.035Z,64.78
2017-12-25T12:07:27.113Z,64.12
2017-12-25T12:08:28.008Z,64.59
2017-12-25T12:10:25.586Z,64.97
2017-12-25T12:11:25.576Z,64.59
2017-12-25T12:13:23.531Z,64.87
2017-12-25T12:14:23.143Z,64.59
2017-12-25T12:16:22.010Z,64.97
2017-12-25T12:17:21.581Z,64.78
2017-12-25T12:19:19.032Z,65.07
2017-12-25T12:20:19.535Z,65.36
2017-12-25T12:22:17.003Z,65.83
2017-12-25T12:23:16.951Z,65.36
2017-12-25T12:25:16.423Z,65.36
2017-12-25T12:26:15.970Z,65.07
2017-12-25T12:28:12.967Z,65.26
2017-12-25T12:29:12.974Z,65.45
2017-12-25T12:31:10.990Z,65.36
2017-12-25T12:32:10.995Z,65.32
2017-12-25T12:34:08.925Z,65.32
2017-12-25T12:35:08.939Z,65.13
2017-12-25T12:37:04.911Z,65.32
2017-12-25T12:38:04.898Z,65.32
2017-12-25T12:40:00.838Z,65.83
2017-12-25T12:41:00.827Z,65.70
2017-12-25T12:42:56.825Z,65.64
2017-12-25T12:43:57.814Z,65.45
2017-12-25T12:45:52.790Z,65.64
2017-12-25T12:46:53.303Z,65.36
2017-12-25T12:48:48.684Z,65.64
2017-12-25T12:49:49.199Z,65.64
2017-12-25T12:51:47.177Z,64.78
2017-12-25T12:52:46.648Z,64.78
2017-12-25T12:54:44.561Z,64.21
2017-12-25T12:55:45.091Z,64.02
2017-12-25T12:57:44.017Z,63.54
2017-12-25T12:58:42.624Z,63.54
2017-12-25T13:00:40.545Z,63.35
2017-12-25T13:01:41.080Z,63.60
2017-12-25T13:03:38.493Z,63.70
2017-12-25T13:04:38.993Z,64.28
2017-12-25T13:06:36.462Z,64.47
2017-12-25T13:07:36.420Z,65.42
2017-12-25T13:09:36.385Z,66.37
2017-12-25T13:10:36.376Z,66.85
2017-12-25T13:12:32.914Z,67.41
2017-12-25T13:13:32.917Z,67.13
2017-12-25T13:15:30.335Z,67.13
2017-12-25T13:16:30.360Z,67.61
2017-12-25T13:18:28.843Z,67.32
2017-12-25T13:19:28.418Z,67.57
2017-12-25T13:21:24.310Z,67.99
2017-12-25T13:22:24.322Z,68.46
2017-12-25T13:24:22.783Z,67.89
2017-12-25T13:25:22.256Z,67.80
2017-12-25T13:27:20.740Z,67.99
2017-12-25T13:28:20.214Z,67.99
2017-12-25T13:30:19.161Z,68.46
2017-12-25T13:31:19.165Z,67.61
2017-12-25T13:33:16.732Z,67.22
2017-12-25T13:34:16.190Z,67.32
2017-12-25T13:36:14.180Z,67.13
2017-12-25T13:37:14.139Z,67.41
2017-12-25T13:39:12.070Z,66.37
2017-12-25T13:40:12.086Z,66.56
2017-12-25T13:42:11.015Z,66.46
2017-12-25T13:43:10.120Z,66.37
2017-12-25T13:45:08.199Z,65.70
2017-12-25T13:46:08.175Z,66.53
2017-12-25T13:48:06.164Z,66.24
2017-12-25T13:49:06.650Z,66.62
2017-12-25T13:51:05.080Z,66.72
2017-12-25T13:52:04.575Z,66.91
2017-12-25T13:54:02.504Z,66.72
2017-12-25T13:55:03.982Z,66.72
2017-12-25T13:57:01.033Z,66.43
2017-12-25T13:58:00.041Z,66.72
2017-12-25T13:59:58.507Z,66.33
2017-12-25T14:00:58.001Z,66.24
2017-12-25T14:02:55.945Z,67.10
2017-12-25T14:03:56.462Z,67.10
2017-12-25T14:05:54.931Z,67.29
2017-12-25T14:06:54.901Z,67.57
2017-12-25T14:08:53.453Z,68.15
2017-12-25T14:09:51.962Z,67.86
2017-12-25T14:11:50.389Z,67.95
2017-12-25T14:12:49.883Z,68.15
2017-12-25T14:14:48.366Z,68.52
2017-12-25T14:15:47.827Z,68.43
2017-12-25T14:17:46.777Z,69.19
2017-12-25T14:18:46.291Z,69.10
2017-12-25T14:20:44.236Z,68.81
2017-12-25T14:21:44.232Z,69.10
2017-12-25T14:23:42.176Z,69.38
2017-12-25T14:24:41.647Z,69.19
2017-12-25T14:26:39.595Z,69.67
2017-12-25T14:27:39.589Z,69.95
2017-12-25T14:29:37.530Z,70.05
2017-12-25T14:30:37.516Z,69.82
2017-12-25T14:32:36.973Z,70.01
2017-12-25T14:33:35.547Z,70.01
2017-12-25T14:35:33.583Z,69.73
2017-12-25T14:36:33.593Z,70.49
2017-12-25T14:38:33.546Z,69.73
2017-12-25T14:39:31.624Z,70.20
2017-12-25T14:41:30.103Z,70.01
2017-12-25T14:42:29.534Z,70.30
2017-12-25T14:44:28.524Z,69.63
2017-12-25T14:45:27.571Z,69.82
2017-12-25T14:47:26.044Z,69.92
2017-12-25T14:48:25.618Z,69.92
2017-12-25T14:50:23.609Z,69.82
2017-12-25T14:51:24.071Z,70.01
2017-12-25T14:53:22.541Z,70.01
2017-12-25T14:54:21.523Z,69.82
2017-12-25T14:56:19.500Z,69.92
2017-12-25T14:57:19.467Z,69.63
2017-12-25T14:59:18.430Z,69.35
2017-12-25T15:00:17.417Z,69.92
2017-12-25T15:02:15.475Z,69.82
2017-12-25T15:03:15.482Z,69.73
2017-12-25T15:05:13.366Z,69.73
2017-12-25T15:06:12.416Z,69.44
2017-12-25T15:08:10.394Z,69.54
2017-12-25T15:09:10.413Z,70.20
2017-12-25T15:11:09.314Z,69.92
2017-12-25T15:12:08.287Z,69.82
2017-12-25T15:14:07.229Z,69.63
2017-12-25T15:15:06.232Z,69.63
2017-12-25T15:17:04.197Z,69.44
2017-12-25T15:18:04.153Z,69.54
2017-12-25T15:20:02.209Z,68.87
2017-12-25T15:21:02.192Z,69.15
2017-12-25T15:22:58.655Z,68.74
2017-12-25T15:23:58.146Z,69.60
2017-12-25T15:25:55.083Z,69.31
2017-12-25T15:26:54.094Z,68.55
2017-12-25T15:28:50.038Z,69.41
2017-12-25T15:29:50.026Z,70.17
2017-12-25T15:31:46.477Z,69.69
2017-12-25T15:32:45.972Z,69.88
2017-12-25T15:34:44.426Z,69.88
2017-12-25T15:35:44.016Z,69.88
2017-12-25T15:37:41.970Z,69.41
2017-12-25T15:38:41.942Z,69.79
2017-12-25T15:40:39.834Z,69.41
2017-12-25T15:41:39.842Z,69.88
2017-12-25T15:43:37.802Z,69.98
2017-12-25T15:44:37.792Z,69.98
2017-12-25T15:46:35.849Z,69.60
2017-12-25T15:47:35.887Z,70.07
2017-12-25T15:49:33.892Z,70.26
2017-12-25T15:50:33.883Z,70.54
2017-12-25T15:52:32.858Z,70.74
2017-12-25T15:53:32.833Z,70.42
2017-12-25T15:55:28.897Z,70.61
2017-12-25T15:56:27.883Z,70.32
2017-12-25T15:58:24.347Z,70.51
2017-12-25T15:59:23.834Z,70.79
2017-12-25T16:01:19.730Z,71.56
2017-12-25T16:02:20.278Z,71.37
2017-12-25T16:04:17.668Z,70.70
2017-12-25T16:05:17.649Z,70.99
2017-12-25T16:07:16.131Z,70.99
2017-12-25T16:08:15.643Z,70.89
2017-12-25T16:10:12.559Z,70.51
2017-12-25T16:11:12.568Z,71.18
2017-12-25T16:13:08.498Z,71.56
2017-12-25T16:14:09.005Z,71.56
2017-12-25T16:16:04.456Z,71.75
2017-12-25T16:17:04.958Z,71.84
2017-12-25T16:19:00.401Z,72.13
2017-12-25T16:20:00.373Z,72.47
2017-12-25T16:21:58.350Z,72.56
2017-12-25T16:22:58.836Z,72.66
2017-12-25T16:24:57.310Z,72.56
2017-12-25T16:25:56.337Z,72.66
2017-12-25T16:27:55.304Z,72.66
2017-12-25T16:28:55.297Z,72.85
2017-12-25T16:30:52.860Z,72.56
2017-12-25T16:31:52.327Z,72.56
2017-12-25T16:33:48.773Z,72.47
2017-12-25T16:34:48.250Z,72.56
2017-12-25T16:36:44.756Z,72.95
2017-12-25T16:37:44.182Z,73.14
2017-12-25T16:39:40.638Z,73.42
2017-12-25T16:40:41.071Z,73.33
2017-12-25T16:42:36.097Z,73.33
2017-12-25T16:43:36.063Z,73.33
2017-12-25T16:45:34.102Z,73.33
2017-12-25T16:46:34.121Z,73.33
2017-12-25T16:48:32.584Z,73.14
2017-12-25T16:49:32.042Z,73.04
2017-12-25T16:51:28.012Z,73.33
2017-12-25T16:52:28.498Z,73.33
2017-12-25T16:54:26.413Z,73.14
2017-12-25T16:55:25.876Z,73.04
2017-12-25T16:57:21.807Z,73.14
2017-12-25T16:58:21.801Z,72.75
2017-12-25T17:00:19.840Z,72.95
2017-12-25T17:01:19.854Z,73.14
2017-12-25T17:03:18.295Z,73.33
2017-12-25T17:04:17.800Z,73.14
2017-12-25T17:06:13.721Z,73.42
2017-12-25T17:07:13.732Z,73.33
2017-12-25T17:09:09.705Z,73.23
2017-12-25T17:10:09.661Z,73.52
2017-12-25T17:12:07.597Z,73.14
2017-12-25T17:13:07.590Z,73.33
2017-12-25T17:15:05.644Z,72.95
2017-12-25T17:16:05.627Z,73.14
2017-12-25T17:18:03.609Z,73.04
2017-12-25T17:19:03.577Z,73.23
2017-12-25T17:21:01.514Z,72.56
2017-12-25T17:22:01.498Z,72.28
2017-12-25T17:23:59.518Z,72.95
2017-12-25T17:24:59.515Z,72.95
2017-12-25T17:26:57.968Z,73.04
2017-12-25T17:27:57.573Z,72.47
2017-12-25T17:29:57.531Z,72.00
2017-12-25T17:30:55.610Z,72.47
2017-12-25T17:32:54.108Z,72.19
2017-12-25T17:33:54.490Z,72.09
2017-12-25T17:35:51.589Z,72.19
2017-12-25T17:36:51.605Z,72.19
2017-12-25T17:38:50.059Z,71.71
2017-12-25T17:39:49.516Z,72.00
2017-12-25T17:41:47.592Z,71.90
2017-12-25T17:42:47.593Z,72.00
2017-12-25T17:44:46.576Z,72.00
2017-12-25T17:45:45.674Z,72.00
2017-12-25T17:47:44.135Z,71.62
2017-12-25T17:48:43.607Z,71.48
2017-12-25T17:50:42.077Z,72.34
2017-12-25T17:51:41.501Z,72.06
2017-12-25T17:53:39.951Z,71.67
2017-12-25T17:54:39.447Z,71.67
2017-12-25T17:56:37.388Z,71.11
2017-12-25T17:57:37.428Z,71.48
2017-12-25T17:59:37.350Z,71.30
2017-12-25T18:00:36.347Z,71.20
2017-12-25T18:02:33.880Z,71.30
2017-12-25T18:03:33.357Z,71.58
2017-12-25T18:05:31.320Z,71.30
2017-12-25T18:06:31.312Z,71.67
2017-12-25T18:08:27.281Z,70.92
2017-12-25T18:09:27.238Z,71.20
2017-12-25T18:11:25.236Z,70.92
2017-12-25T18:12:26.202Z,71.01
2017-12-25T18:14:21.698Z,70.63
2017-12-25T18:15:21.176Z,71.67
2017-12-25T18:17:19.227Z,71.48
2017-12-25T18:18:20.122Z,71.77
2017-12-25T18:20:17.173Z,71.11
2017-12-25T18:21:17.713Z,71.67
2017-12-25T18:23:15.113Z,71.67
2017-12-25T18:24:15.107Z,71.01
2017-12-25T18:26:11.051Z,71.67
2017-12-25T18:27:11.557Z,71.48
2017-12-25T18:29:09.996Z,71.58
2017-12-25T18:30:08.985Z,71.20
2017-12-25T18:32:04.956Z,71.48
2017-12-25T18:33:04.935Z,70.63
2017-12-25T18:35:03.419Z,70.92
2017-12-25T18:36:02.952Z,70.92
2017-12-25T18:38:00.880Z,71.58
2017-12-25T18:39:00.900Z,71.58
2017-12-25T18:40:57.353Z,71.77
2017-12-25T18:41:56.785Z,71.58
2017-12-25T18:43:55.246Z,71.86
2017-12-25T18:44:54.702Z,71.96
2017-12-25T18:46:52.655Z,71.86
2017-12-25T18:47:52.651Z,71.86
2017-12-25T18:49:50.701Z,72.63
2017-12-25T18:50:51.615Z,72.25
2017-12-25T18:52:49.655Z,73.00
2017-12-25T18:53:48.774Z,73.48
2017-12-25T18:55:47.181Z,73.00
2017-12-25T18:56:47.177Z,73.19
2017-12-25T18:58:44.618Z,73.48
2017-12-25T18:59:44.582Z,73.29
2017-12-25T19:01:42.569Z,73.00
2017-12-25T19:02:42.514Z,73.38
2017-12-25T19:04:38.984Z,73.29